createdAt,value
2018-01-25T00:01:51.502Z,101391.40
2018-01-25T00:04:21.415Z,101388.36
2018-01-25T00:06:49.178Z,101387.94
2018-01-25T00:09:21.281Z,101377.47
2018-01-25T00:11:51.292Z,101377.03
2018-01-25T00:14:21.378Z,101370.52
2018-01-25T00:16:49.184Z,101370.94
2018-01-25T00:19:16.906Z,101375.28
2018-01-25T00:21:44.845Z,101377.89
2018-01-25T00:24:12.478Z,101373.11
2018-01-25T00:26:44.540Z,101358.77
2018-01-25T00:29:13.241Z,101375.29
2018-01-25T00:31:45.250Z,101385.69
2018-01-25T00:34:13.183Z,101373.95
2018-01-25T00:36:40.826Z,101373.09
2018-01-25T00:39:11.002Z,101377.84
2018-01-25T00:41:38.820Z,101378.28
2018-01-25T00:44:06.834Z,101383.06
2018-01-25T00:46:34.777Z,101388.28
2018-01-25T00:49:04.724Z,101386.55
2018-01-25T00:51:32.665Z,101398.70
2018-01-25T00:54:04.655Z,101406.95
2018-01-25T00:56:34.567Z,101404.31
2018-01-25T00:59:02.449Z,101403.45
2018-01-25T01:01:30.192Z,101399.11
2018-01-25T01:04:02.162Z,101399.11
2018-01-25T01:06:30.133Z,101403.02
2018-01-25T01:09:01.071Z,101393.87
2018-01-25T01:11:28.915Z,101400.83
2018-01-25T01:13:56.692Z,101395.15
2018-01-25T01:16:28.704Z,101383.86
2018-01-25T01:18:56.430Z,101375.11
2018-01-25T01:21:24.317Z,101369.03
2018-01-25T01:23:54.283Z,101366.42
2018-01-25T01:26:24.121Z,101362.05
2018-01-25T01:28:51.964Z,101360.76
2018-01-25T01:31:19.904Z,101352.93
2018-01-25T01:33:50.116Z,101358.14
2018-01-25T01:36:18.143Z,101361.19
2018-01-25T01:38:48.077Z,101362.49
2018-01-25T01:41:16.840Z,101352.50
2018-01-25T01:43:44.529Z,101352.49
2018-01-25T01:46:12.444Z,101352.50
2018-01-25T01:48:40.356Z,101350.73
2018-01-25T01:51:08.426Z,101344.22
2018-01-25T01:53:36.253Z,101340.74
2018-01-25T01:56:04.007Z,101339.03
2018-01-25T01:58:31.954Z,101339.47
2018-01-25T02:00:59.963Z,101332.48
2018-01-25T02:03:27.903Z,101334.66
2018-01-25T02:05:56.646Z,101331.19
2018-01-25T02:08:26.761Z,101326.84
2018-01-25T02:10:54.573Z,101333.80
2018-01-25T02:13:22.316Z,101329.86
2018-01-25T02:15:52.817Z,101320.73
2018-01-25T02:18:20.772Z,101321.17
2018-01-25T02:20:48.658Z,101317.27
2018-01-25T02:23:16.553Z,101318.14
2018-01-25T02:25:46.646Z,101318.56
2018-01-25T02:28:14.422Z,101321.15
2018-01-25T02:30:42.374Z,101318.55
2018-01-25T02:33:10.439Z,101320.72
2018-01-25T02:35:38.379Z,101320.28
2018-01-25T02:38:06.145Z,101313.77
2018-01-25T02:40:36.302Z,101313.31
2018-01-25T02:43:04.368Z,101313.75
2018-01-25T02:45:32.267Z,101314.16
2018-01-25T02:48:02.358Z,101314.19
2018-01-25T02:50:30.247Z,101311.55
2018-01-25T02:52:58.388Z,101313.29
2018-01-25T02:55:26.312Z,101301.56
2018-01-25T02:57:54.069Z,101310.25
2018-01-25T03:00:24.866Z,101306.75
2018-01-25T03:02:52.634Z,101308.05
2018-01-25T03:05:22.540Z,101305.02
2018-01-25T03:07:50.355Z,101297.20
2018-01-25T03:10:18.171Z,101294.56
2018-01-25T03:12:45.845Z,101294.13
2018-01-25T03:15:13.786Z,101289.80
2018-01-25T03:17:41.567Z,101283.69
2018-01-25T03:20:13.607Z,101278.04
2018-01-25T03:22:41.824Z,101280.65
2018-01-25T03:25:09.637Z,101275.88
2018-01-25T03:27:37.453Z,101274.14
2018-01-25T03:30:05.456Z,101267.63
2018-01-25T03:32:33.286Z,101266.73
2018-01-25T03:35:00.937Z,101265.86
2018-01-25T03:37:29.006Z,101265.41
2018-01-25T03:39:56.831Z,101269.31
2018-01-25T03:42:29.023Z,101264.97
2018-01-25T03:44:57.013Z,101259.33
2018-01-25T03:47:25.295Z,101264.94
2018-01-25T03:49:53.052Z,101257.13
2018-01-25T03:52:21.123Z,101264.52
2018-01-25T03:54:53.195Z,101255.39
2018-01-25T03:57:21.166Z,101254.52
2018-01-25T03:59:49.280Z,101261.91
2018-01-25T04:02:17.107Z,101257.14
2018-01-25T04:04:45.167Z,101259.28
2018-01-25T04:07:13.130Z,101255.80
2018-01-25T04:09:43.158Z,101247.13
2018-01-25T04:12:10.927Z,101247.98
2018-01-25T04:14:38.921Z,101246.69
2018-01-25T04:17:06.912Z,101247.55
2018-01-25T04:19:39.125Z,101243.66
2018-01-25T04:22:07.030Z,101252.74
2018-01-25T04:24:35.144Z,101247.97
2018-01-25T04:27:03.098Z,101252.74
2018-01-25T04:29:35.165Z,101243.63
2018-01-25T04:32:03.167Z,101240.59
2018-01-25T04:34:31.131Z,101241.02
2018-01-25T04:36:59.259Z,101242.33
2018-01-25T04:39:29.276Z,101238.83
2018-01-25T04:41:57.142Z,101231.45
2018-01-25T04:44:25.233Z,101234.08
2018-01-25T04:46:53.048Z,101235.79
2018-01-25T04:49:22.848Z,101234.05
2018-01-25T04:51:50.554Z,101231.88
2018-01-25T04:54:22.579Z,101228.41
2018-01-25T04:56:50.417Z,101228.82
2018-01-25T04:59:18.151Z,101225.35
2018-01-25T05:01:46.169Z,101220.14
2018-01-25T05:04:14.006Z,101217.94
2018-01-25T05:06:43.860Z,101214.04
2018-01-25T05:09:11.624Z,101215.34
2018-01-25T05:11:40.302Z,101205.36
2018-01-25T05:14:08.079Z,101204.93
2018-01-25T05:16:41.449Z,101204.03
2018-01-25T05:19:09.428Z,101218.36
2018-01-25T05:21:39.938Z,101219.66
2018-01-25T05:24:08.687Z,101220.09
2018-01-25T05:26:36.545Z,101217.05
2018-01-25T05:29:04.661Z,101223.14
2018-01-25T05:31:34.502Z,101226.17
2018-01-25T05:34:02.204Z,101228.34
2018-01-25T05:36:30.155Z,101233.98
2018-01-25T05:38:58.048Z,101242.69
2018-01-25T05:41:25.773Z,101247.47
2018-01-25T05:43:53.534Z,101249.23
2018-01-25T05:46:21.289Z,101259.23
2018-01-25T05:48:49.269Z,101264.88
2018-01-25T05:51:17.785Z,101259.26
2018-01-25T05:53:47.838Z,101259.72
2018-01-25T05:56:16.033Z,101260.56
2018-01-25T05:58:43.872Z,101261.42
2018-01-25T06:01:13.718Z,101272.39
2018-01-25T06:03:41.678Z,101273.33
2018-01-25T06:06:09.301Z,101272.05
2018-01-25T06:08:37.157Z,101273.02
2018-01-25T06:11:07.348Z,101273.45
2018-01-25T06:13:35.312Z,101265.62
2018-01-25T06:16:07.408Z,101269.66
2018-01-25T06:18:35.371Z,101273.20
2018-01-25T06:21:03.222Z,101278.46
2018-01-25T06:23:35.418Z,101287.64
2018-01-25T06:26:03.384Z,101283.75
2018-01-25T06:28:31.279Z,101285.13
2018-01-25T06:31:01.061Z,101285.05
2018-01-25T06:33:30.986Z,101289.43
2018-01-25T06:35:58.846Z,101287.69
2018-01-25T06:38:26.916Z,101286.81
2018-01-25T06:40:57.003Z,101292.47
2018-01-25T06:43:24.757Z,101289.38
2018-01-25T06:45:52.532Z,101289.80
2018-01-25T06:48:20.516Z,101296.32
2018-01-25T06:50:48.555Z,101288.44
2018-01-25T06:53:18.573Z,101291.91
2018-01-25T06:55:46.526Z,101287.16
2018-01-25T06:58:18.463Z,101287.19
2018-01-25T07:00:46.475Z,101281.91
2018-01-25T07:03:16.698Z,101276.16
2018-01-25T07:05:44.511Z,101271.72
2018-01-25T07:08:17.079Z,101269.09
2018-01-25T07:10:44.968Z,101272.16
2018-01-25T07:13:12.684Z,101271.75
2018-01-25T07:15:44.628Z,101273.96
2018-01-25T07:18:12.806Z,101271.80
2018-01-25T07:20:41.497Z,101270.44
2018-01-25T07:23:09.447Z,101268.67
2018-01-25T07:25:39.688Z,101268.25
2018-01-25T07:28:07.400Z,101265.59
2018-01-25T07:30:35.935Z,101263.40
2018-01-25T07:33:04.382Z,101255.09
2018-01-25T07:35:32.089Z,101246.80
2018-01-25T07:38:04.774Z,101248.95
2018-01-25T07:40:33.446Z,101245.36
2018-01-25T07:43:01.523Z,101239.20
2018-01-25T07:45:29.903Z,101239.17
2018-01-25T07:47:58.314Z,101242.09
2018-01-25T07:50:26.349Z,101234.91
2018-01-25T07:52:54.217Z,101237.52
2018-01-25T07:55:22.791Z,101237.91
2018-01-25T08:00:55.796Z,101224.78
2018-01-25T08:03:24.055Z,101227.69
2018-01-25T08:05:51.993Z,101227.63
2018-01-25T08:08:19.793Z,101223.28
2018-01-25T08:10:47.959Z,101223.65
2018-01-25T08:13:23.589Z,101219.63
2018-01-25T08:15:53.765Z,101228.77
2018-01-25T08:18:21.619Z,101228.27
2018-01-25T08:20:49.461Z,101224.13
2018-01-25T08:23:17.511Z,101223.65
2018-01-25T08:25:45.182Z,101231.47
2018-01-25T08:28:13.184Z,101223.14
2018-01-25T08:30:49.245Z,101231.83
2018-01-25T08:33:21.023Z,101232.66
2018-01-25T08:35:49.075Z,101225.17
2018-01-25T08:38:16.848Z,101232.56
2018-01-25T08:40:44.532Z,101237.13
2018-01-25T08:43:12.954Z,101234.64
2018-01-25T08:45:40.639Z,101235.95
2018-01-25T08:48:08.312Z,101231.15
2018-01-25T08:50:36.053Z,101234.17
2018-01-25T08:53:03.693Z,101227.09
2018-01-25T08:55:31.365Z,101226.63
2018-01-25T08:57:59.900Z,101224.83
2018-01-25T09:00:29.885Z,101225.28
2018-01-25T09:02:57.584Z,101213.53
2018-01-25T09:05:25.264Z,101207.42
2018-01-25T09:07:52.913Z,101203.48
2018-01-25T09:10:22.600Z,101203.94
2018-01-25T09:12:52.264Z,101193.05
2018-01-25T09:15:20.965Z,101194.36
2018-01-25T09:17:53.582Z,101180.36
2018-01-25T09:20:23.748Z,101171.17
2018-01-25T09:22:53.598Z,101165.47
2018-01-25T09:25:21.296Z,101168.49
2018-01-25T09:27:49.006Z,101156.10
2018-01-25T09:30:16.749Z,101152.59
2018-01-25T09:32:44.402Z,101145.15
2018-01-25T09:35:12.902Z,101140.05
2018-01-25T09:37:42.655Z,101130.67
2018-01-25T09:40:11.275Z,101122.36
2018-01-25T09:42:38.983Z,101115.06
2018-01-25T09:45:07.649Z,101115.59
2018-01-25T09:47:35.375Z,101102.20
2018-01-25T09:50:03.072Z,101092.84
2018-01-25T09:52:30.815Z,101093.83
2018-01-25T09:54:58.446Z,101083.92
2018-01-25T09:57:26.125Z,101076.28
2018-01-25T09:59:55.908Z,101069.84
2018-01-25T10:02:23.608Z,101061.80
2018-01-25T10:04:52.212Z,101060.18
2018-01-25T10:07:20.732Z,101051.97
2018-01-25T10:09:48.362Z,101049.39
2018-01-25T10:12:16.037Z,101043.80
2018-01-25T10:14:43.739Z,101046.06
2018-01-25T10:17:11.381Z,101037.39
2018-01-25T10:19:43.108Z,101027.82
2018-01-25T10:22:10.813Z,101030.93
2018-01-25T10:24:42.483Z,101025.06
2018-01-25T10:27:10.184Z,101026.45
2018-01-25T10:29:40.136Z,101022.55
2018-01-25T10:32:07.769Z,101023.06
2018-01-25T10:34:35.433Z,101022.28
2018-01-25T10:37:03.124Z,101016.21
2018-01-25T10:39:31.557Z,101013.94
2018-01-25T10:41:59.346Z,101011.34
2018-01-25T10:44:27.051Z,101011.92
2018-01-25T10:46:54.756Z,101004.53
2018-01-25T10:49:25.572Z,101002.88
2018-01-25T10:51:54.182Z,100991.27
2018-01-25T10:54:22.840Z,100984.16
2018-01-25T10:56:50.964Z,100986.66
2018-01-25T10:59:23.043Z,100984.24
2018-01-25T11:01:56.340Z,100987.23
2018-01-25T11:04:26.278Z,100980.03
2018-01-25T11:06:55.009Z,100976.78
2018-01-25T11:09:27.002Z,100977.43
2018-01-25T11:11:54.886Z,100965.09
2018-01-25T11:14:22.563Z,100963.95
2018-01-25T11:16:52.741Z,100954.06
2018-01-25T11:19:20.511Z,100955.05
2018-01-25T11:21:48.455Z,100950.78
2018-01-25T11:24:16.551Z,100944.75
2018-01-25T11:26:44.383Z,100945.55
2018-01-25T11:29:12.187Z,100941.52
2018-01-25T11:31:40.908Z,100943.76
2018-01-25T11:34:08.732Z,100933.81
2018-01-25T11:36:36.410Z,100941.36
2018-01-25T11:39:06.353Z,100930.50
2018-01-25T11:41:34.085Z,100933.18
2018-01-25T11:44:03.814Z,100933.66
2018-01-25T11:46:31.904Z,100925.19
2018-01-25T11:48:59.838Z,100919.33
2018-01-25T11:51:27.597Z,100916.94
2018-01-25T11:53:56.352Z,100914.03
2018-01-25T11:56:24.057Z,100908.73
2018-01-25T11:58:54.160Z,100901.92
2018-01-25T12:01:21.781Z,100893.59
2018-01-25T12:03:49.798Z,100896.14
2018-01-25T12:06:17.596Z,100890.16
2018-01-25T12:08:45.373Z,100887.64
2018-01-25T12:11:16.181Z,100883.83
2018-01-25T12:13:43.921Z,100877.59
2018-01-25T12:16:11.691Z,100873.91
2018-01-25T12:18:43.960Z,100877.48
2018-01-25T12:21:11.840Z,100873.69
2018-01-25T12:23:41.764Z,100870.59
2018-01-25T12:26:09.506Z,100864.83
2018-01-25T12:28:39.417Z,100869.61
2018-01-25T12:31:11.487Z,100864.85
2018-01-25T12:33:41.434Z,100863.99
2018-01-25T12:36:09.180Z,100865.74
2018-01-25T12:38:39.358Z,100862.25
2018-01-25T12:41:09.394Z,100861.40
2018-01-25T12:43:42.237Z,100858.92
2018-01-25T12:46:10.351Z,100851.15
2018-01-25T12:48:38.171Z,100853.39
2018-01-25T12:51:06.068Z,100845.97
2018-01-25T12:53:36.113Z,100845.59
2018-01-25T12:56:04.069Z,100844.66
2018-01-25T12:58:32.007Z,100847.17
2018-01-25T13:01:01.700Z,100838.36
2018-01-25T13:03:29.400Z,100843.67
2018-01-25T13:05:59.799Z,100842.05
2018-01-25T13:08:31.705Z,100838.19
2018-01-25T13:10:59.591Z,100839.14
2018-01-25T13:13:29.383Z,100840.06
2018-01-25T13:15:57.056Z,100835.31
2018-01-25T13:18:24.883Z,100841.00
2018-01-25T13:20:53.673Z,100834.81
2018-01-25T13:23:25.446Z,100836.94
2018-01-25T13:25:53.213Z,100838.19
2018-01-25T13:28:20.846Z,100843.01
2018-01-25T13:30:52.661Z,100837.66
2018-01-25T13:33:25.943Z,100843.55
2018-01-25T13:35:56.612Z,100841.89
2018-01-25T13:38:24.256Z,100837.20
2018-01-25T13:40:54.139Z,100833.78
2018-01-25T13:43:21.761Z,100831.23
2018-01-25T13:45:49.443Z,100823.03
2018-01-25T13:48:17.806Z,100821.73
2018-01-25T13:50:45.430Z,100822.94
2018-01-25T13:53:21.106Z,100816.30
2018-01-25T13:55:52.855Z,100815.36
2018-01-25T13:58:22.391Z,100810.57
2018-01-25T14:00:51.115Z,100808.51
2018-01-25T14:03:19.039Z,100807.05
2018-01-25T14:05:47.192Z,100807.99
2018-01-25T14:08:15.921Z,100803.66
2018-01-25T14:10:43.936Z,100806.58
2018-01-25T14:13:14.037Z,100807.53
2018-01-25T14:15:41.913Z,100802.84
2018-01-25T14:18:09.632Z,100802.06
2018-01-25T14:20:41.639Z,100792.77
2018-01-25T14:23:09.427Z,100799.85
2018-01-25T14:25:37.455Z,100798.20
2018-01-25T14:28:08.669Z,100798.30
2018-01-25T14:30:40.737Z,100796.05
2018-01-25T14:33:08.426Z,100800.48
2018-01-25T14:35:36.055Z,100791.41
2018-01-25T14:38:04.768Z,100793.70
2018-01-25T14:40:32.495Z,100795.09
2018-01-25T14:43:00.168Z,100790.39
2018-01-25T14:45:27.802Z,100789.14
2018-01-25T14:47:55.425Z,100785.30
2018-01-25T14:50:26.070Z,100781.42
2018-01-25T14:52:53.689Z,100788.50
2018-01-25T14:55:27.923Z,100788.16
2018-01-25T14:57:55.625Z,100787.78
2018-01-25T15:00:28.387Z,100792.20
2018-01-25T15:02:56.046Z,100792.73
2018-01-25T15:05:24.634Z,100793.23
2018-01-25T15:07:52.315Z,100794.61
2018-01-25T15:10:20.830Z,100789.87
2018-01-25T15:12:48.453Z,100793.00
2018-01-25T15:15:16.105Z,100793.05
2018-01-25T15:17:43.777Z,100793.53
2018-01-25T15:20:12.206Z,100785.73
2018-01-25T15:22:39.947Z,100791.48
2018-01-25T15:25:13.192Z,100791.95
2018-01-25T15:27:41.850Z,100789.83
2018-01-25T15:30:10.388Z,100782.41
2018-01-25T15:32:38.021Z,100782.81
2018-01-25T15:35:07.830Z,100782.36
2018-01-25T15:37:35.462Z,100789.39
2018-01-25T15:40:07.349Z,100785.46
2018-01-25T15:42:35.000Z,100782.04
2018-01-25T15:45:02.777Z,100784.25
2018-01-25T15:47:35.365Z,100787.38
2018-01-25T15:50:03.008Z,100791.38
2018-01-25T15:52:30.652Z,100796.22
2018-01-25T15:54:58.319Z,100793.60
2018-01-25T15:57:26.020Z,100788.85
2018-01-25T15:59:54.606Z,100798.03
2018-01-25T16:02:22.358Z,100789.78
2018-01-25T16:04:50.060Z,100788.09
2018-01-25T16:07:21.981Z,100794.20
2018-01-25T16:09:51.846Z,100791.62
2018-01-25T16:12:23.664Z,100795.16
2018-01-25T16:14:51.290Z,100789.06
2018-01-25T16:17:22.988Z,100788.65
2018-01-25T16:19:50.618Z,100790.87
2018-01-25T16:22:18.324Z,100794.38
2018-01-25T16:24:46.025Z,100792.19
2018-01-25T16:27:14.507Z,100794.41
2018-01-25T16:29:43.447Z,100793.60
2018-01-25T16:32:15.298Z,100794.48
2018-01-25T16:34:43.938Z,100796.68
2018-01-25T16:37:11.637Z,100797.16
2018-01-25T16:39:40.141Z,100798.48
2018-01-25T16:42:14.241Z,100800.66
2018-01-25T16:44:41.936Z,100802.87
2018-01-25T16:47:10.441Z,100807.27
2018-01-25T16:49:38.970Z,100808.17
2018-01-25T16:52:06.606Z,100810.37
2018-01-25T16:54:36.746Z,100802.98
2018-01-25T16:57:04.808Z,100808.22
2018-01-25T16:59:33.614Z,100810.88
2018-01-25T17:02:01.730Z,100814.37
2018-01-25T17:04:29.825Z,100808.72
2018-01-25T17:06:57.913Z,100812.66
2018-01-25T17:09:25.977Z,100817.93
2018-01-25T17:11:54.018Z,100824.05
2018-01-25T17:14:22.107Z,100822.73
2018-01-25T17:16:52.610Z,100832.36
2018-01-25T17:19:20.312Z,100831.92
2018-01-25T17:21:48.060Z,100834.14
2018-01-25T17:24:15.731Z,100835.44
2018-01-25T17:26:43.432Z,100828.49
2018-01-25T17:29:13.306Z,100836.34
2018-01-25T17:31:41.014Z,100838.95
2018-01-25T17:34:13.575Z,100836.79
2018-01-25T17:36:41.210Z,100842.45
2018-01-25T17:39:08.836Z,100835.52
2018-01-25T17:41:38.808Z,100834.64
2018-01-25T17:44:07.262Z,100841.65
2018-01-25T17:46:38.925Z,100838.16
2018-01-25T17:49:06.612Z,100841.66
2018-01-25T17:51:38.462Z,100843.44
2018-01-25T17:54:06.094Z,100846.05
2018-01-25T17:56:38.128Z,100848.69
2018-01-25T17:59:05.863Z,100849.56
2018-01-25T18:01:35.884Z,100846.52
2018-01-25T18:04:04.247Z,100847.84
2018-01-25T18:06:33.106Z,100855.66
2018-01-25T18:09:05.700Z,100853.08
2018-01-25T18:11:35.126Z,100850.47
2018-01-25T18:14:04.001Z,100850.50
2018-01-25T18:16:32.024Z,100852.24
2018-01-25T18:19:01.589Z,100846.61
2018-01-25T18:21:30.376Z,100847.90
2018-01-25T18:23:59.593Z,100846.63
2018-01-25T18:26:30.414Z,100849.66
2018-01-25T18:29:00.707Z,100850.56
2018-01-25T18:31:31.381Z,100847.53
2018-01-25T18:34:01.126Z,100849.68
2018-01-25T18:36:29.944Z,100844.92
2018-01-25T18:38:58.034Z,100845.80
2018-01-25T18:41:28.358Z,100848.41
2018-01-25T18:43:58.320Z,100847.55
2018-01-25T18:46:27.054Z,100846.23
2018-01-25T18:48:54.922Z,100850.61
2018-01-25T18:51:22.985Z,100848.03
2018-01-25T18:53:50.913Z,100849.76
2018-01-25T18:56:19.883Z,100852.38
2018-01-25T18:58:49.480Z,100852.39
2018-01-25T19:01:17.423Z,100852.84
2018-01-25T19:03:45.626Z,100859.36
2018-01-25T19:06:13.583Z,100858.95
2018-01-25T19:08:45.759Z,100856.33
2018-01-25T19:11:13.856Z,100859.36
2018-01-25T19:13:42.513Z,100856.76
2018-01-25T19:16:11.395Z,100855.47
2018-01-25T19:18:39.376Z,100853.72
2018-01-25T19:21:07.598Z,100855.03
2018-01-25T19:23:35.634Z,100860.69
2018-01-25T19:26:03.377Z,100859.41
2018-01-25T19:28:31.467Z,100863.33
2018-01-25T19:31:00.556Z,100858.11
2018-01-25T19:33:28.378Z,100861.59
2018-01-25T19:36:02.229Z,100858.99
2018-01-25T19:38:30.285Z,100862.06
2018-01-25T19:41:00.852Z,100867.27
2018-01-25T19:43:29.807Z,100869.45
2018-01-25T19:46:06.975Z,100869.89
2018-01-25T19:48:36.737Z,100866.88
2018-01-25T19:51:05.581Z,100867.30
2018-01-25T19:53:33.460Z,100871.67
2018-01-25T19:56:02.372Z,100868.63
2018-01-25T19:58:32.374Z,100868.61
2018-01-25T20:01:00.449Z,100863.86
2018-01-25T20:03:28.307Z,100871.69
2018-01-25T20:05:58.731Z,100873.41
2018-01-25T20:08:27.240Z,100881.70
2018-01-25T20:10:58.268Z,100877.37
2018-01-25T20:13:27.447Z,100875.61
2018-01-25T20:15:56.242Z,100879.12
2018-01-25T20:18:26.163Z,100882.17
2018-01-25T20:20:53.924Z,100877.37
2018-01-25T20:23:21.757Z,100883.46
2018-01-25T20:25:54.348Z,100887.38
2018-01-25T20:28:22.445Z,100892.59
2018-01-25T20:30:50.520Z,100889.56
2018-01-25T20:33:18.529Z,100891.31
2018-01-25T20:35:46.535Z,100887.42
2018-01-25T20:38:15.825Z,100895.23
2018-01-25T20:40:44.026Z,100897.86
2018-01-25T20:43:11.859Z,100898.28
2018-01-25T20:45:42.068Z,100896.11
2018-01-25T20:48:10.698Z,100898.29
2018-01-25T20:50:38.570Z,100894.82
2018-01-25T20:53:06.838Z,100895.72
2018-01-25T20:55:34.693Z,100899.62
2018-01-25T20:58:03.648Z,100897.00
2018-01-25T21:00:32.286Z,100902.67
2018-01-25T21:03:00.256Z,100904.84
2018-01-25T21:05:29.221Z,100907.02
2018-01-25T21:07:57.197Z,100916.59
2018-01-25T21:10:24.926Z,100921.37
2018-01-25T21:12:52.744Z,100922.70
2018-01-25T21:15:22.872Z,100922.70
2018-01-25T21:17:50.848Z,100922.25
2018-01-25T21:20:18.799Z,100933.58
2018-01-25T21:22:52.605Z,100931.84
2018-01-25T21:25:22.572Z,100932.69
2018-01-25T21:27:52.750Z,100937.92
2018-01-25T21:30:22.662Z,100939.24
2018-01-25T21:32:50.619Z,100937.48
2018-01-25T21:35:18.658Z,100943.13
2018-01-25T21:37:46.621Z,100941.84
2018-01-25T21:40:14.510Z,100930.98
2018-01-25T21:42:42.554Z,100944.01
2018-01-25T21:45:11.295Z,100947.49
2018-01-25T21:47:39.369Z,100948.80
2018-01-25T21:50:09.427Z,100941.41
2018-01-25T21:52:38.190Z,100940.98
2018-01-25T21:55:06.032Z,100938.39
2018-01-25T21:57:34.072Z,100940.97
2018-01-25T22:00:02.284Z,100940.55
2018-01-25T22:02:30.108Z,100940.57
2018-01-25T22:04:59.342Z,100938.84
2018-01-25T22:07:29.271Z,100941.86
2018-01-25T22:09:57.108Z,100942.73
2018-01-25T22:12:25.103Z,100951.02
2018-01-25T22:14:52.987Z,100947.94
2018-01-25T22:17:20.670Z,100952.76
2018-01-25T22:19:49.411Z,100948.41
2018-01-25T22:22:17.451Z,100944.48
2018-01-25T22:24:45.462Z,100946.66
2018-01-25T22:27:13.525Z,100944.48
2018-01-25T22:29:42.432Z,100944.48
2018-01-25T22:32:16.472Z,100937.97
2018-01-25T22:34:44.379Z,100931.44
2018-01-25T22:37:12.480Z,100930.59
2018-01-25T22:39:40.640Z,100932.77
2018-01-25T22:42:08.686Z,100925.79
2018-01-25T22:44:40.778Z,100922.34
2018-01-25T22:47:08.553Z,100926.22
2018-01-25T22:49:36.496Z,100919.71
2018-01-25T22:52:06.534Z,100922.75
2018-01-25T22:54:34.607Z,100927.55
2018-01-25T22:57:02.570Z,100928.42
2018-01-25T22:59:30.608Z,100927.98
2018-01-25T23:01:58.574Z,100927.98
2018-01-25T23:04:26.283Z,100927.12
2018-01-25T23:06:54.053Z,100926.26
2018-01-25T23:09:21.817Z,100926.23
2018-01-25T23:11:49.761Z,100925.80
2018-01-25T23:14:17.642Z,100927.13
2018-01-25T23:16:49.748Z,100924.06
2018-01-25T23:19:17.592Z,100926.69
2018-01-25T23:21:45.840Z,100926.70
2018-01-25T23:24:13.798Z,100925.81
2018-01-25T23:26:41.728Z,100928.86
2018-01-25T23:29:09.531Z,100921.05
2018-01-25T23:31:37.567Z,100929.73
2018-01-25T23:34:05.586Z,100924.95
2018-01-25T23:36:33.576Z,100924.09
2018-01-25T23:39:01.737Z,100918.00
2018-01-25T23:41:29.774Z,100909.33
2018-01-25T23:43:57.774Z,100911.91
2018-01-25T23:46:27.803Z,100913.66
2018-01-25T23:48:55.617Z,100908.00
2018-01-25T23:51:23.433Z,100911.03
2018-01-25T23:53:51.549Z,100913.23
2018-01-25T23:56:19.644Z,100911.48
2018-01-25T23:58:51.639Z,100908.00
